»·PEaware :: N701GT KBFL-KSAN

N701GT :: KBFL-KSAN

FLIGHT INFORMATION

Flight Status: Arrived
Operator: Privately registered:
United States
More flights under this callsign
Pilot: Anonymous 17564 (17564)
Aircraft: CESSNA 310
(C310)
More flights by this aircraft type
Origin: KBFL Meadows
United States
Destination: KSAN San Diego Intl-Lindbergh
United States
More flights between these airports :: More routes between these airports
Route: +MARIC4 GMN V23 LAX HUBRD1
File this flight plan on PilotEdge
Remarks:
Altitude:
(Current/Filed)
15,000ft
Speed:
(Current/Filed)
180kts
Departed: 20-Jun-18 05:18 PM
Arrived: 20-Jun-18 06:48 PM
Distance/Time
Traveled:
187nm/1:30
Distance/Time
To Go:
Arrived

Flight Plot

Page will automatically refresh every two minutes.


Map Options




Map Legend


Flown Route
Filed Route
Departure Airport
Arrival Airport
Navaid (VOR, NDB)
Fix

Horizontal Profiles

Position Reports

Time Latitude Longitude Heading Altitude Ground
Speed
20-Jun-18 17:02 35.428460 -119.045223 359 510ft 0kts
20-Jun-18 17:03 35.428460 -119.045223 359 510ft 0kts
20-Jun-18 17:04 35.428460 -119.045223 359 510ft 0kts
20-Jun-18 17:05 35.428460 -119.045223 359 510ft 0kts
20-Jun-18 17:06 35.428460 -119.045223 359 510ft 0kts
20-Jun-18 17:07 35.428460 -119.045223 359 510ft 0kts
20-Jun-18 17:08 35.428460 -119.045223 359 510ft 0kts
20-Jun-18 17:09 35.428460 -119.045223 359 510ft 0kts
20-Jun-18 17:10 35.428460 -119.045223 359 510ft 0kts
20-Jun-18 17:11 35.428460 -119.045223 359 510ft 0kts
20-Jun-18 17:12 35.428460 -119.045223 359 510ft 0kts
20-Jun-18 17:13 35.428460 -119.045223 359 510ft 0kts
20-Jun-18 17:14 35.428514 -119.045273 281 510ft 3kts
20-Jun-18 17:15 35.426527 -119.045101 136 510ft 15kts
20-Jun-18 17:16 35.425410 -119.044500 258 510ft 0kts
20-Jun-18 17:17 35.425543 -119.046087 312 510ft 4kts
20-Jun-18 17:18 35.439497 -119.067394 271 999ft 129kts
20-Jun-18 17:19 35.429866 -119.105681 252 1958ft 149kts
20-Jun-18 17:20 35.409120 -119.150378 224 3060ft 154kts
20-Jun-18 17:21 35.372437 -119.176456 212 4158ft 149kts
20-Jun-18 17:22 35.332157 -119.206684 208 5442ft 142kts
20-Jun-18 17:23 35.295576 -119.230529 210 6441ft 150kts
20-Jun-18 17:24 35.259880 -119.254889 210 7424ft 144kts
20-Jun-18 17:25 35.229216 -119.257640 156 8244ft 141kts
20-Jun-18 17:26 35.206811 -119.219953 123 9233ft 137kts
20-Jun-18 17:27 35.185922 -119.182069 128 10183ft 133kts
20-Jun-18 17:28 35.163537 -119.143551 128 10905ft 142kts
20-Jun-18 17:29 35.139291 -119.104231 132 11582ft 149kts
20-Jun-18 17:30 35.110754 -119.062008 133 12101ft 165kts
20-Jun-18 17:31 35.089468 -119.022997 120 12531ft 164kts
20-Jun-18 17:32 35.063763 -118.973949 128 13059ft 173kts
20-Jun-18 17:33 35.027968 -118.938669 170 13546ft 163kts
20-Jun-18 17:34 34.985680 -118.924230 168 14023ft 153kts
20-Jun-18 17:35 34.945727 -118.910320 170 14507ft 146kts
20-Jun-18 17:36 34.907378 -118.897141 171 14992ft 140kts
20-Jun-18 17:37 34.870897 -118.884622 170 15223ft 151kts
20-Jun-18 17:38 34.833121 -118.871655 170 15220ft 161kts
20-Jun-18 17:39 34.796381 -118.858107 163 15172ft 167kts
20-Jun-18 17:40 34.753120 -118.836613 163 15196ft 169kts
20-Jun-18 17:41 34.707269 -118.813798 162 15186ft 179kts
20-Jun-18 17:42 34.659967 -118.790273 162 15160ft 180kts
20-Jun-18 17:43 34.614629 -118.767771 163 15150ft 172kts
20-Jun-18 17:44 34.575099 -118.748184 162 15147ft 171kts
20-Jun-18 17:45 34.529476 -118.725574 162 15096ft 176kts
20-Jun-18 17:46 34.484472 -118.703313 162 15064ft 172kts
20-Jun-18 17:47 34.440231 -118.681405 163 15036ft 171kts
20-Jun-18 17:48 34.396464 -118.659838 162 15010ft 170kts
20-Jun-18 17:49 34.352523 -118.638224 162 14993ft 170kts
20-Jun-18 17:50 34.308568 -118.616560 162 14974ft 170kts
20-Jun-18 17:51 34.271300 -118.598242 162 14964ft 170kts
20-Jun-18 17:52 34.229244 -118.577518 162 14965ft 170kts
20-Jun-18 17:53 34.184618 -118.555561 162 14963ft 175kts
20-Jun-18 17:54 34.139028 -118.533218 162 14943ft 180kts
20-Jun-18 17:55 34.093631 -118.510968 162 14956ft 173kts
20-Jun-18 17:56 34.049317 -118.489342 162 14968ft 170kts
20-Jun-18 17:57 34.014457 -118.472294 162 15008ft 169kts
20-Jun-18 17:58 33.970640 -118.450904 162 15006ft 170kts
20-Jun-18 17:59 33.927564 -118.427401 139 15004ft 174kts
20-Jun-18 18:00 33.895046 -118.383805 136 15008ft 175kts
20-Jun-18 18:01 33.866321 -118.346622 136 15008ft 175kts
20-Jun-18 18:02 33.832975 -118.303574 137 14999ft 176kts
20-Jun-18 18:03 33.799470 -118.260851 136 15017ft 178kts
20-Jun-18 18:04 33.763833 -118.215299 136 14983ft 185kts
20-Jun-18 18:05 33.729294 -118.171186 136 14982ft 178kts
20-Jun-18 18:06 33.695448 -118.127929 136 14987ft 176kts
20-Jun-18 18:07 33.666833 -118.091554 136 14994ft 176kts
20-Jun-18 18:08 33.636129 -118.051966 137 14999ft 175kts
20-Jun-18 18:09 33.602390 -118.009419 137 15005ft 175kts
20-Jun-18 18:10 33.568837 -117.966889 136 15009ft 175kts
20-Jun-18 18:11 33.535348 -117.924409 136 15012ft 175kts
20-Jun-18 18:12 33.501727 -117.881792 136 15002ft 176kts
20-Jun-18 18:13 33.467975 -117.839084 136 14988ft 176kts
20-Jun-18 18:14 33.434363 -117.796580 136 14990ft 175kts
20-Jun-18 18:15 33.400796 -117.754201 136 14993ft 175kts
20-Jun-18 18:16 33.367370 -117.712009 136 14996ft 174kts
20-Jun-18 18:17 33.333887 -117.669863 136 15003ft 174kts
20-Jun-18 18:18 33.300416 -117.627804 136 15004ft 174kts
20-Jun-18 18:19 33.267112 -117.585910 135 15007ft 174kts
20-Jun-18 18:20 33.233734 -117.544029 135 15013ft 173kts
20-Jun-18 18:21 33.200398 -117.502265 135 15013ft 173kts
20-Jun-18 18:22 33.167109 -117.460596 135 15015ft 173kts
20-Jun-18 18:23 33.133417 -117.420200 152 14985ft 163kts
20-Jun-18 18:24 33.093890 -117.394417 149 14081ft 189kts
20-Jun-18 18:25 33.053996 -117.375697 157 13164ft 166kts
20-Jun-18 18:26 33.011466 -117.353068 153 11917ft 179kts
20-Jun-18 18:27 32.970694 -117.330307 154 10635ft 171kts
20-Jun-18 18:28 32.929223 -117.307195 154 9361ft 175kts
20-Jun-18 18:29 32.888748 -117.284619 154 7851ft 148kts
20-Jun-18 18:30 32.854081 -117.265054 154 6913ft 120kts
20-Jun-18 18:31 32.823227 -117.247496 154 7003ft 137kts
20-Jun-18 18:32 32.786142 -117.226478 154 7010ft 153kts
20-Jun-18 18:33 32.768251 -117.182877 100 7005ft 157kts
20-Jun-18 18:34 32.762440 -117.135289 92 6982ft 147kts
20-Jun-18 18:35 32.761294 -117.083225 92 6554ft 172kts
20-Jun-18 18:36 32.759521 -117.024027 92 5579ft 186kts
20-Jun-18 18:37 32.757709 -116.963797 92 4977ft 167kts
20-Jun-18 18:38 32.756173 -116.910466 92 4970ft 153kts
20-Jun-18 18:39 32.741185 -116.867640 131 4985ft 141kts
20-Jun-18 18:40 32.712773 -116.833890 175 4964ft 144kts
20-Jun-18 18:41 32.692447 -116.868422 252 4984ft 143kts
20-Jun-18 18:42 32.678584 -116.915185 249 4952ft 152kts
20-Jun-18 18:43 32.680608 -116.970043 287 3547ft 176kts
20-Jun-18 18:44 32.694224 -117.026254 285 2936ft 188kts
20-Jun-18 18:45 32.707691 -117.082672 284 1984ft 166kts
20-Jun-18 18:46 32.718419 -117.125280 284 1492ft 107kts
20-Jun-18 18:47 32.726564 -117.160426 282 455ft 102kts
20-Jun-18 18:48 32.733133 -117.188055 313 18ft 28kts
20-Jun-18 18:49 32.734179 -117.187733 86 18ft 9kts
20-Jun-18 18:50 32.733031 -117.182786 106 18ft 23kts
20-Jun-18 18:51 32.734481 -117.179579 124 18ft 0kts
20-Jun-18 18:52 32.734481 -117.179579 124 18ft 0kts
20-Jun-18 18:53 32.734481 -117.179579 124 18ft 0kts
20-Jun-18 18:54 32.734481 -117.179579 124 18ft 0kts
20-Jun-18 18:55 32.734481 -117.179579 124 18ft 0kts
20-Jun-18 18:56 32.734481 -117.179579 124 18ft 0kts
20-Jun-18 18:57 32.734481 -117.179579 124 18ft 0kts
20-Jun-18 18:58 32.734481 -117.179579 124 18ft 0kts
20-Jun-18 18:59 32.734481 -117.179579 124 18ft 0kts
20-Jun-18 19:00 32.734481 -117.179579 124 18ft 0kts
20-Jun-18 19:01 32.734481 -117.179579 124 18ft 0kts
20-Jun-18 19:02 32.734481 -117.179579 124 18ft 0kts
20-Jun-18 19:03 32.734481 -117.179579 124 18ft 0kts

Navigation Log

Ident Type
Flight plan parsing failed, navigation log unavailable